Cambria, California
Current Conditions -  °F | °C
As of 7:53 PM on Friday 24 Oct 2014 (Local Time) from KPRB Reporting Station
Clear Clear  
Wind Chill: 62°   Ceiling: Unl
Heat Index: 62°   Visibility: 10mi
Dew Point: 49°   Wind: 7mph
Humidity: 62%   Direction: 220°SW
Pressure: 29.96"   Gusts: NA
Location:  35.55°N, 121.07°W
Report Text: KPRB 250253Z AUTO 22006KT 10SM CLR 17/09 A2996 RMK AO2 SLP144 T01670094 53014 TSNO
Loading
Personal Weather Stations






























Interactive Weather Map
Tropical Storm Tracking
New forecast layout! Learn more

10-Day Weather Forecast

Advertisements
Track Severe Weather on mobile